Time;durP1;ratioP1;P1;durP2;ratioP2;P2;SDS_P1;SDS_P2;PMS_P1;PMS_P2;Temp;Humidity;BMP_temperature;BMP_pressure;BME280_temperature;BME280_humidity;BME280_pressure;Samples;Min_cycle;Max_cycle;Signal;HPM_P1;HPM_P2
2022/01/09 00:01:59;;;;;;;1.12;1.12;;;2.50;99.90;;;;;;486120;242;27421;-68
2022/01/09 00:04:00;;;;;;;1.55;1.45;;;2.50;99.90;;;;;;486073;242;27440;-68
2022/01/09 00:06:01;;;;;;;1.20;1.20;;;2.50;99.90;;;;;;486040;242;27452;-68
2022/01/09 00:08:03;;;;;;;1.10;1.10;;;2.60;99.90;;;;;;486103;242;27400;-68
2022/01/09 00:10:04;;;;;;;1.42;1.33;;;2.60;99.90;;;;;;486109;242;27412;-69
2022/01/09 00:12:05;;;;;;;1.30;1.20;;;2.60;99.90;;;;;;486094;242;27412;-68
2022/01/09 00:14:06;;;;;;;1.30;1.20;;;2.60;99.90;;;;;;486066;244;27382;-68
2022/01/09 00:16:08;;;;;;;2.80;1.95;;;2.60;99.90;;;;;;486065;242;27903;-68
2022/01/09 00:18:09;;;;;;;1.27;1.20;;;2.70;99.90;;;;;;486103;242;28034;-68
2022/01/09 00:20:13;;;;;;;1.45;1.35;;;2.70;99.90;;;;;;486104;242;27965;-68
2022/01/09 00:22:11;;;;;;;1.35;1.25;;;2.70;99.90;;;;;;486185;240;27971;-68
2022/01/09 00:24:13;;;;;;;1.35;1.25;;;2.80;99.90;;;;;;486087;242;27360;-68
2022/01/09 00:26:14;;;;;;;1.10;1.10;;;2.80;99.90;;;;;;486080;242;27447;-68
2022/01/09 00:28:16;;;;;;;2.85;1.05;;;2.90;99.90;;;;;;486082;242;27524;-68
2022/01/09 00:30:18;;;;;;;1.40;1.30;;;2.90;99.90;;;;;;486091;242;27518;-68
2022/01/09 00:32:19;;;;;;;1.60;1.40;;;3.00;99.90;;;;;;486089;242;27384;-68
2022/01/09 00:34:20;;;;;;;1.10;1.10;;;3.00;99.90;;;;;;486079;242;27377;-68
2022/01/09 00:36:21;;;;;;;1.30;1.30;;;3.10;99.90;;;;;;486082;242;27974;-68
2022/01/09 00:38:23;;;;;;;1.25;1.25;;;3.00;99.90;;;;;;486088;242;27961;-68
2022/01/09 00:40:24;;;;;;;1.10;1.10;;;3.10;99.90;;;;;;486098;242;27900;-68
2022/01/09 00:42:25;;;;;;;1.20;1.20;;;3.10;99.90;;;;;;486070;242;27814;-68
2022/01/09 00:44:26;;;;;;;1.10;1.10;;;3.10;99.90;;;;;;486105;242;27369;-68
2022/01/09 00:46:28;;;;;;;1.08;1.08;;;3.10;99.90;;;;;;486018;242;27528;-68
2022/01/09 00:48:29;;;;;;;1.40;1.35;;;3.20;99.90;;;;;;486096;242;27372;-68
2022/01/09 00:50:30;;;;;;;1.10;1.10;;;3.20;99.90;;;;;;486103;242;27413;-68
2022/01/09 00:52:31;;;;;;;1.10;1.10;;;3.20;99.90;;;;;;486104;242;27467;-68
2022/01/09 00:54:33;;;;;;;1.00;1.00;;;3.30;99.90;;;;;;486115;242;27374;-68
2022/01/09 00:56:34;;;;;;;1.40;1.30;;;3.40;99.90;;;;;;486109;242;27476;-68
2022/01/09 00:58:35;;;;;;;1.10;1.10;;;3.40;99.90;;;;;;486102;242;27377;-68
2022/01/09 01:00:39;;;;;;;1.23;1.00;;;3.40;99.90;;;;;;486105;242;27502;-68
2022/01/09 01:02:38;;;;;;;1.10;1.10;;;3.40;99.90;;;;;;486107;242;27504;-68
2022/01/09 01:04:40;;;;;;;1.10;1.10;;;3.40;99.90;;;;;;486082;242;27912;-68
2022/01/09 01:06:40;;;;;;;1.10;1.00;;;3.50;99.90;;;;;;486118;242;27979;-68
2022/01/09 01:08:41;;;;;;;1.00;1.00;;;3.50;99.90;;;;;;486115;242;27944;-68
2022/01/09 01:10:43;;;;;;;1.00;1.00;;;3.50;99.90;;;;;;486078;242;29119;-68
2022/01/09 01:12:44;;;;;;;1.02;1.02;;;3.50;99.90;;;;;;486079;242;27499;-68
2022/01/09 01:14:45;;;;;;;1.00;1.00;;;3.50;99.90;;;;;;486109;242;27378;-68
2022/01/09 01:16:46;;;;;;;1.00;1.00;;;3.60;99.90;;;;;;486094;242;27416;-68
2022/01/09 01:18:48;;;;;;;0.93;0.93;;;3.70;99.90;;;;;;486067;242;27476;-68
2022/01/09 01:20:49;;;;;;;1.08;1.00;;;3.60;99.90;;;;;;486095;242;27439;-68
2022/01/09 01:22:51;;;;;;;1.10;1.10;;;3.60;99.90;;;;;;486093;242;27408;-68
2022/01/09 01:24:52;;;;;;;1.00;1.00;;;3.60;99.90;;;;;;486093;242;27376;-68
2022/01/09 01:26:53;;;;;;;1.15;1.05;;;3.70;99.90;;;;;;486082;242;27527;-68
2022/01/09 01:28:54;;;;;;;1.00;1.00;;;3.70;99.90;;;;;;486085;242;27411;-69
2022/01/09 01:30:55;;;;;;;0.98;0.98;;;3.70;99.90;;;;;;486077;242;27416;-69
2022/01/09 01:32:56;;;;;;;1.27;1.27;;;3.70;99.90;;;;;;486051;242;28702;-68
2022/01/09 01:34:58;;;;;;;1.08;1.08;;;3.70;99.90;;;;;;486121;242;27825;-69
2022/01/09 01:36:59;;;;;;;1.37;1.00;;;3.70;99.90;;;;;;486066;242;27902;-69
2022/01/09 01:39:00;;;;;;;1.40;1.30;;;3.70;99.90;;;;;;486054;242;27817;-69
2022/01/09 01:41:01;;;;;;;1.10;1.10;;;3.70;99.90;;;;;;486059;242;27539;-68
2022/01/09 01:43:03;;;;;;;1.20;1.20;;;3.70;99.90;;;;;;486004;242;27483;-69
2022/01/09 01:45:04;;;;;;;1.10;1.10;;;3.70;99.90;;;;;;486098;242;27406;-69
2022/01/09 01:47:05;;;;;;;0.90;0.90;;;3.70;99.90;;;;;;486070;242;27436;-69
2022/01/09 01:49:07;;;;;;;1.00;1.00;;;3.60;99.90;;;;;;486039;242;27373;-69
2022/01/09 01:51:08;;;;;;;1.10;1.10;;;3.70;99.90;;;;;;486074;242;27529;-69
2022/01/09 01:53:12;;;;;;;1.23;1.12;;;3.60;99.90;;;;;;486059;242;27468;-69
2022/01/09 01:55:10;;;;;;;1.10;1.10;;;3.60;99.90;;;;;;486126;242;27512;-69
2022/01/09 01:57:11;;;;;;;1.20;1.12;;;3.70;99.90;;;;;;486101;242;27531;-69
2022/01/09 01:59:13;;;;;;;1.20;1.20;;;3.60;99.90;;;;;;486112;242;27379;-69
2022/01/09 02:01:14;;;;;;;1.00;1.00;;;3.60;99.90;;;;;;486130;242;27901;-69
2022/01/09 02:03:15;;;;;;;1.25;1.20;;;3.60;99.90;;;;;;486106;242;27852;-69
2022/01/09 02:05:16;;;;;;;1.30;1.30;;;3.60;99.90;;;;;;486139;242;27844;-69
2022/01/09 02:07:18;;;;;;;2.15;1.30;;;3.70;99.90;;;;;;486076;242;27907;-68
2022/01/09 02:09:19;;;;;;;1.70;1.60;;;3.70;99.90;;;;;;486106;242;27449;-69
2022/01/09 02:11:20;;;;;;;1.27;1.17;;;3.70;99.90;;;;;;486130;242;27491;-69
2022/01/09 02:13:21;;;;;;;1.15;1.15;;;3.70;99.90;;;;;;486123;242;27366;-69
2022/01/09 02:15:23;;;;;;;1.30;1.20;;;3.70;99.90;;;;;;486098;242;27401;-69
2022/01/09 02:17:24;;;;;;;1.10;1.10;;;3.70;99.90;;;;;;486102;242;27526;-69
2022/01/09 02:19:27;;;;;;;1.40;1.30;;;3.70;99.90;;;;;;486133;242;27377;-69
2022/01/09 02:21:26;;;;;;;1.52;1.42;;;3.70;99.90;;;;;;486114;242;27496;-69
2022/01/09 02:23:28;;;;;;;1.55;1.30;;;3.70;99.90;;;;;;486112;242;27364;-69
2022/01/09 02:25:29;;;;;;;1.30;1.30;;;3.70;99.90;;;;;;486133;242;27369;-69
2022/01/09 02:27:30;;;;;;;1.20;1.20;;;3.70;99.90;;;;;;486144;242;27416;-69
2022/01/09 02:29:31;;;;;;;1.30;1.20;;;3.70;99.90;;;;;;486127;242;27917;-69
2022/01/09 02:31:33;;;;;;;1.55;1.30;;;3.70;99.90;;;;;;486101;242;27948;-69
2022/01/09 02:33:34;;;;;;;1.70;1.60;;;3.70;99.90;;;;;;486102;242;28359;-68
2022/01/09 02:35:35;;;;;;;2.03;1.92;;;3.70;99.90;;;;;;486121;242;27404;-69
2022/01/09 02:37:36;;;;;;;1.73;1.62;;;3.80;99.90;;;;;;486097;242;27508;-69
2022/01/09 02:39:38;;;;;;;1.40;1.40;;;3.80;99.90;;;;;;486107;242;27453;-69
2022/01/09 02:41:39;;;;;;;1.65;1.55;;;3.80;99.90;;;;;;486101;242;27404;-68
2022/01/09 02:43:40;;;;;;;3.92;2.00;;;3.80;99.90;;;;;;486102;242;27374;-69
2022/01/09 02:45:44;;;;;;;1.70;1.60;;;3.90;99.90;;;;;;486092;242;27470;-69
2022/01/09 02:47:43;;;;;;;3.55;1.80;;;3.90;99.90;;;;;;486109;242;27483;-69
2022/01/09 02:49:48;;;;;;;1.67;1.58;;;3.90;99.90;;;;;;486101;242;27729;-69
2022/01/09 02:51:46;;;;;;;1.40;1.40;;;3.90;99.90;;;;;;486123;242;27412;-69
2022/01/09 02:53:49;;;;;;;1.20;1.20;;;3.90;99.90;;;;;;486091;242;27370;-69
2022/01/09 02:55:48;;;;;;;1.35;1.35;;;3.90;99.90;;;;;;486074;242;27456;-68
2022/01/09 02:57:49;;;;;;;1.48;1.37;;;3.90;99.90;;;;;;486118;242;27903;-69
2022/01/09 02:59:50;;;;;;;1.17;1.17;;;3.90;99.90;;;;;;486104;242;27824;-69
2022/01/09 03:01:51;;;;;;;1.27;1.20;;;3.90;99.90;;;;;;486108;242;27891;-69
2022/01/09 03:03:53;;;;;;;1.67;1.27;;;3.90;99.90;;;;;;486110;242;27819;-68
2022/01/09 03:05:54;;;;;;;1.45;1.35;;;3.90;99.90;;;;;;486109;242;27401;-69
2022/01/09 03:07:55;;;;;;;1.10;1.10;;;3.90;99.90;;;;;;486109;242;27503;-69
2022/01/09 03:09:56;;;;;;;1.12;1.12;;;3.90;99.90;;;;;;486103;242;27420;-69
2022/01/09 03:11:58;;;;;;;1.10;1.10;;;3.90;99.90;;;;;;486109;242;27380;-69
2022/01/09 03:13:59;;;;;;;1.33;1.23;;;3.90;99.90;;;;;;486078;242;27385;-69
2022/01/09 03:16:00;;;;;;;1.40;1.20;;;3.90;99.90;;;;;;486082;242;27415;-69
2022/01/09 03:18:01;;;;;;;1.30;1.30;;;3.80;99.90;;;;;;486092;242;27417;-68
2022/01/09 03:20:03;;;;;;;1.00;1.00;;;3.80;99.90;;;;;;486094;242;27381;-69
2022/01/09 03:22:04;;;;;;;1.70;1.10;;;3.80;99.90;;;;;;486102;242;27451;-68
2022/01/09 03:24:05;;;;;;;1.12;1.02;;;3.90;99.90;;;;;;486090;242;27377;-69
2022/01/09 03:26:09;;;;;;;1.08;1.08;;;3.80;99.90;;;;;;486101;242;27947;-69
2022/01/09 03:28:08;;;;;;;1.00;1.00;;;3.80;99.90;;;;;;486188;242;27986;-69
2022/01/09 03:30:09;;;;;;;1.00;1.00;;;3.80;99.90;;;;;;486090;242;27871;-69
2022/01/09 03:32:10;;;;;;;5.45;1.20;;;3.80;99.90;;;;;;486132;242;27992;-68
2022/01/09 03:34:11;;;;;;;1.23;1.15;;;3.80;99.90;;;;;;486082;242;27396;-68
2022/01/09 03:36:13;;;;;;;1.00;1.00;;;3.80;99.90;;;;;;486107;242;27366;-69
2022/01/09 03:38:14;;;;;;;1.00;1.00;;;3.70;99.90;;;;;;486060;242;27934;-69
2022/01/09 03:40:15;;;;;;;0.90;0.90;;;3.70;99.90;;;;;;485947;242;27365;-68
2022/01/09 03:42:16;;;;;;;1.05;1.05;;;3.70;99.90;;;;;;485862;242;27401;-69
2022/01/09 03:44:18;;;;;;;2.78;1.12;;;3.70;99.90;;;;;;485855;242;27402;-69
2022/01/09 03:46:19;;;;;;;1.02;1.00;;;3.60;99.90;;;;;;485886;242;27374;-68
2022/01/09 03:48:20;;;;;;;0.95;0.93;;;3.60;99.90;;;;;;486010;242;27414;-68
2022/01/09 03:50:22;;;;;;;1.25;1.05;;;3.60;99.90;;;;;;486102;242;27381;-69
2022/01/09 03:52:27;;;;;;;0.90;0.90;;;3.60;99.90;;;;;;486109;242;27528;-69
2022/01/09 03:54:27;;;;;;;1.12;1.12;;;3.60;99.90;;;;;;486108;242;27452;-69
2022/01/09 03:56:28;;;;;;;0.95;0.95;;;3.60;99.90;;;;;;486138;242;27435;-68
2022/01/09 03:58:29;;;;;;;0.90;0.90;;;3.50;99.90;;;;;;486103;242;27846;-69
2022/01/09 04:00:31;;;;;;;1.00;1.00;;;3.50;99.90;;;;;;486118;242;27877;-69
2022/01/09 04:02:32;;;;;;;1.00;1.00;;;3.50;99.90;;;;;;486117;242;27831;-69
2022/01/09 04:04:33;;;;;;;1.10;1.00;;;3.50;99.90;;;;;;486122;242;27920;-68
2022/01/09 04:06:34;;;;;;;1.15;1.00;;;3.50;99.90;;;;;;486109;242;27492;-69
2022/01/09 04:08:36;;;;;;;1.00;1.00;;;3.40;99.90;;;;;;486124;242;27365;-69
2022/01/09 04:10:41;;;;;;;0.85;0.85;;;3.30;99.90;;;;;;486097;242;27432;-68
2022/01/09 04:12:47;;;;;;;0.98;0.98;;;3.30;99.90;;;;;;486101;242;27390;-69
2022/01/09 04:14:39;;;;;;;1.20;1.10;;;3.20;99.90;;;;;;486158;242;27364;-69
2022/01/09 04:16:41;;;;;;;2.55;1.33;;;3.20;99.90;;;;;;486131;242;27448;-69
2022/01/09 04:18:42;;;;;;;1.00;1.00;;;3.20;99.90;;;;;;486085;242;27393;-69
2022/01/09 04:20:43;;;;;;;1.10;1.00;;;3.10;99.90;;;;;;486112;242;27494;-68
2022/01/09 04:22:44;;;;;;;1.00;1.00;;;3.10;99.90;;;;;;486089;242;27775;-69
2022/01/09 04:24:46;;;;;;;0.90;0.90;;;3.10;99.90;;;;;;486110;242;27474;-68
2022/01/09 04:26:47;;;;;;;0.90;0.90;;;3.00;99.90;;;;;;486124;242;27892;-68
2022/01/09 04:28:48;;;;;;;0.93;0.93;;;3.10;99.90;;;;;;486057;242;28574;-69
2022/01/09 04:30:49;;;;;;;1.10;1.10;;;3.00;99.90;;;;;;486093;242;29143;-68
2022/01/09 04:32:51;;;;;;;1.20;1.20;;;3.10;99.90;;;;;;486096;242;27817;-68
2022/01/09 04:34:52;;;;;;;1.17;1.17;;;3.10;99.90;;;;;;486112;242;27452;-69
2022/01/09 04:36:53;;;;;;;1.08;1.08;;;3.10;99.90;;;;;;486101;242;27475;-69
2022/01/09 04:38:55;;;;;;;1.17;1.17;;;3.10;99.90;;;;;;486085;242;27423;-68
2022/01/09 04:40:56;;;;;;;1.25;1.25;;;3.10;99.90;;;;;;486078;242;27492;-68
2022/01/09 04:43:00;;;;;;;1.40;1.27;;;3.10;99.90;;;;;;486101;242;27372;-68
2022/01/09 04:44:58;;;;;;;1.30;1.30;;;3.10;99.90;;;;;;486092;242;27381;-69
2022/01/09 04:47:04;;;;;;;3.53;1.52;;;3.10;99.90;;;;;;486116;242;27408;-68
2022/01/09 04:49:01;;;;;;;1.45;1.35;;;3.10;99.90;;;;;;486189;242;27376;-69
2022/01/09 04:51:02;;;;;;;1.48;1.42;;;3.10;99.90;;;;;;486092;242;27408;-68
2022/01/09 04:53:07;;;;;;;1.35;1.30;;;3.10;99.90;;;;;;486071;242;27368;-69
2022/01/09 04:55:07;;;;;;;1.62;1.50;;;3.10;99.90;;;;;;486060;242;27364;-68
2022/01/09 04:57:08;;;;;;;1.75;1.42;;;3.10;99.90;;;;;;486085;242;27369;-68
2022/01/09 04:59:10;;;;;;;2.70;1.80;;;3.10;99.90;;;;;;486111;242;27402;-68
2022/01/09 05:01:11;;;;;;;1.77;1.67;;;3.10;99.90;;;;;;486125;242;27435;-68
2022/01/09 05:03:13;;;;;;;3.50;2.22;;;3.10;99.90;;;;;;486108;242;27487;-68
2022/01/09 05:05:13;;;;;;;1.70;1.60;;;3.10;99.90;;;;;;486049;242;27464;-69
2022/01/09 05:07:15;;;;;;;2.17;2.00;;;3.10;99.90;;;;;;486075;242;27429;-68
2022/01/09 05:09:16;;;;;;;3.95;2.20;;;3.10;99.90;;;;;;486122;242;27400;-68
2022/01/09 05:11:17;;;;;;;4.85;2.22;;;3.20;99.90;;;;;;486078;242;27436;-69
2022/01/09 05:13:18;;;;;;;3.00;2.30;;;3.20;99.90;;;;;;486066;242;27524;-69
2022/01/09 05:15:20;;;;;;;7.68;2.33;;;3.20;99.90;;;;;;486067;242;27900;-69
2022/01/09 05:17:21;;;;;;;6.35;2.60;;;3.20;99.90;;;;;;486121;242;27894;-68
2022/01/09 05:19:28;;;;;;;6.95;2.50;;;3.20;99.90;;;;;;486083;242;27994;-68
2022/01/09 05:21:23;;;;;;;3.45;2.08;;;3.20;99.90;;;;;;486134;242;27804;-68
2022/01/09 05:23:25;;;;;;;5.97;2.35;;;3.20;99.90;;;;;;486076;242;27508;-69
2022/01/09 05:25:26;;;;;;;4.25;2.53;;;3.20;99.90;;;;;;486081;242;27487;-69
2022/01/09 05:27:27;;;;;;;3.95;2.20;;;3.30;99.90;;;;;;486126;242;27439;-68
2022/01/09 05:29:28;;;;;;;4.60;2.20;;;3.20;99.90;;;;;;486111;242;27406;-68
2022/01/09 05:31:30;;;;;;;3.28;2.15;;;3.20;99.90;;;;;;486129;242;27462;-68
2022/01/09 05:33:31;;;;;;;4.65;2.20;;;3.20;99.90;;;;;;486104;242;27423;-68
2022/01/09 05:35:32;;;;;;;9.27;2.10;;;3.20;99.90;;;;;;486113;242;27507;-69
2022/01/09 05:37:33;;;;;;;5.05;2.10;;;3.20;99.90;;;;;;486109;242;27487;-68
2022/01/09 05:39:35;;;;;;;3.92;2.50;;;3.20;99.90;;;;;;486136;242;27515;-69
2022/01/09 05:41:36;;;;;;;5.75;2.28;;;3.20;99.90;;;;;;486100;242;27413;-68
2022/01/09 05:43:39;;;;;;;3.85;2.20;;;3.20;99.90;;;;;;486109;242;27923;-68
2022/01/09 05:45:38;;;;;;;5.60;2.60;;;3.20;99.90;;;;;;486097;242;28315;-69
2022/01/09 05:47:40;;;;;;;3.72;2.28;;;3.20;99.90;;;;;;486135;242;27841;-68
2022/01/09 05:49:41;;;;;;;3.72;2.10;;;3.20;99.90;;;;;;486119;242;27887;-68
2022/01/09 05:51:42;;;;;;;4.47;1.92;;;3.10;99.90;;;;;;486130;242;27479;-68
2022/01/09 05:53:43;;;;;;;3.53;2.10;;;3.20;99.90;;;;;;486137;242;27480;-69
2022/01/09 05:55:45;;;;;;;2.55;1.90;;;3.20;99.90;;;;;;486160;242;27499;-68
2022/01/09 05:57:47;;;;;;;3.97;2.30;;;3.10;99.90;;;;;;486119;242;27771;-69
2022/01/09 05:59:48;;;;;;;5.05;2.17;;;3.20;99.90;;;;;;486131;242;27389;-69
2022/01/09 06:01:49;;;;;;;6.62;2.58;;;3.10;99.90;;;;;;486131;242;27415;-69
2022/01/09 06:03:50;;;;;;;3.97;1.85;;;3.20;99.90;;;;;;486104;242;27997;-68
2022/01/09 06:05:52;;;;;;;3.53;2.28;;;3.20;99.90;;;;;;486103;242;28000;-69
2022/01/09 06:07:53;;;;;;;3.60;2.22;;;3.20;99.90;;;;;;486148;242;28061;-68
2022/01/09 06:09:54;;;;;;;5.10;2.45;;;3.20;99.90;;;;;;486126;242;27365;-68
2022/01/09 06:11:56;;;;;;;3.40;2.22;;;3.20;99.90;;;;;;486098;242;27425;-68
2022/01/09 06:13:57;;;;;;;2.60;2.17;;;3.20;99.90;;;;;;486097;242;27365;-69
2022/01/09 06:15:58;;;;;;;3.42;2.30;;;3.10;99.90;;;;;;486093;242;27428;-68
2022/01/09 06:17:59;;;;;;;6.10;2.50;;;3.20;99.90;;;;;;486097;242;27413;-68
2022/01/09 06:20:00;;;;;;;4.50;2.35;;;3.20;99.90;;;;;;486116;242;27381;-68
2022/01/09 06:22:02;;;;;;;8.75;2.70;;;3.20;99.90;;;;;;486117;242;27400;-68
2022/01/09 06:24:03;;;;;;;3.83;2.10;;;3.20;99.90;;;;;;486115;242;27374;-68
2022/01/09 06:26:04;;;;;;;3.72;2.17;;;3.20;99.90;;;;;;486065;242;27519;-69
2022/01/09 06:28:05;;;;;;;3.75;2.33;;;3.20;99.90;;;;;;486144;242;27936;-69
2022/01/09 06:30:07;;;;;;;4.62;2.50;;;3.20;99.90;;;;;;486125;242;27829;-68
2022/01/09 06:32:09;;;;;;;6.85;3.03;;;3.20;99.90;;;;;;486091;242;29138;-69
2022/01/09 06:34:11;;;;;;;3.15;2.50;;;3.10;99.90;;;;;;486117;242;26296;-68
2022/01/09 06:36:11;;;;;;;5.32;2.42;;;3.20;99.90;;;;;;486120;242;27365;-68
2022/01/09 06:38:12;;;;;;;7.00;3.00;;;3.20;99.90;;;;;;486106;242;27393;-68
2022/01/09 06:40:14;;;;;;;4.80;3.05;;;3.20;99.90;;;;;;486139;242;27544;-69
2022/01/09 06:42:15;;;;;;;4.80;2.62;;;3.20;99.90;;;;;;486096;242;27419;-68
2022/01/09 06:44:16;;;;;;;4.00;2.90;;;3.10;99.90;;;;;;486113;242;27421;-68
2022/01/09 06:46:17;;;;;;;5.65;2.50;;;3.10;99.90;;;;;;486094;242;27451;-69
2022/01/09 06:48:19;;;;;;;7.82;3.05;;;3.20;99.90;;;;;;486102;242;27376;-69
2022/01/09 06:50:20;;;;;;;8.63;3.62;;;3.10;99.90;;;;;;486108;242;27967;-68
2022/01/09 06:52:21;;;;;;;6.25;3.10;;;3.10;99.90;;;;;;486123;242;27859;-69
2022/01/09 06:54:22;;;;;;;3.05;2.42;;;3.10;99.90;;;;;;486138;242;27948;-68
2022/01/09 06:56:24;;;;;;;7.07;3.12;;;3.10;99.90;;;;;;486093;242;28924;-68
2022/01/09 06:58:25;;;;;;;4.15;2.42;;;3.10;99.90;;;;;;486130;242;27529;-69
2022/01/09 07:00:26;;;;;;;4.18;2.37;;;3.10;99.90;;;;;;486124;242;27409;-68
2022/01/09 07:02:27;;;;;;;6.05;2.72;;;3.10;99.90;;;;;;486105;242;27368;-68
2022/01/09 07:04:29;;;;;;;6.80;2.90;;;3.10;99.90;;;;;;486122;242;27508;-69
2022/01/09 07:06:30;;;;;;;6.37;2.90;;;3.10;99.90;;;;;;486091;242;27372;-68
2022/01/09 07:08:33;;;;;;;5.68;2.70;;;3.10;99.90;;;;;;486095;242;27487;-68
2022/01/09 07:10:32;;;;;;;8.52;3.10;;;3.10;99.90;;;;;;486121;242;27499;-69
2022/01/09 07:12:34;;;;;;;5.87;2.80;;;3.10;99.90;;;;;;486080;242;27464;-69
2022/01/09 07:14:35;;;;;;;7.45;2.85;;;3.00;99.90;;;;;;486102;242;27495;-68
2022/01/09 07:16:36;;;;;;;6.10;2.92;;;3.00;99.90;;;;;;486107;242;27380;-68
2022/01/09 07:18:37;;;;;;;4.10;2.42;;;3.00;99.90;;;;;;486085;242;27885;-68
2022/01/09 07:20:39;;;;;;;7.03;2.75;;;3.00;99.90;;;;;;486101;242;27952;-69
2022/01/09 07:22:40;;;;;;;6.97;2.80;;;3.00;99.90;;;;;;486123;242;27926;-68
2022/01/09 07:24:41;;;;;;;3.28;2.47;;;3.00;99.90;;;;;;486080;242;28050;-69
2022/01/09 07:26:42;;;;;;;6.20;3.55;;;3.00;99.90;;;;;;486126;242;27362;-69
2022/01/09 07:28:44;;;;;;;7.53;3.37;;;3.00;99.90;;;;;;486106;242;27471;-69
2022/01/09 07:30:45;;;;;;;10.95;4.25;;;2.90;99.90;;;;;;486143;242;27412;-69
2022/01/09 07:32:46;;;;;;;5.03;2.97;;;3.00;99.90;;;;;;486146;242;27361;-68
2022/01/09 07:34:47;;;;;;;4.40;2.87;;;2.90;99.90;;;;;;486117;242;27519;-69
2022/01/09 07:36:49;;;;;;;7.12;2.85;;;2.90;99.90;;;;;;486115;242;27381;-69
2022/01/09 07:38:50;;;;;;;3.53;2.40;;;2.90;99.90;;;;;;486110;242;27408;-69
2022/01/09 07:40:51;;;;;;;3.45;2.42;;;3.00;99.90;;;;;;486110;242;27409;-68
2022/01/09 07:42:52;;;;;;;4.15;2.20;;;2.90;99.90;;;;;;486106;242;27373;-69
2022/01/09 07:44:54;;;;;;;5.10;2.40;;;2.90;99.90;;;;;;485894;242;27881;-69
2022/01/09 07:46:55;;;;;;;8.82;3.03;;;2.90;99.90;;;;;;486095;242;28968;-69
2022/01/09 07:48:56;;;;;;;10.35;2.70;;;2.90;99.90;;;;;;486109;242;27925;-69
2022/01/09 07:50:57;;;;;;;6.25;2.83;;;2.90;99.90;;;;;;486092;242;27971;-68
2022/01/09 07:52:59;;;;;;;4.53;2.22;;;2.90;99.90;;;;;;486091;242;27457;-69
2022/01/09 07:55:00;;;;;;;10.30;2.40;;;2.90;99.90;;;;;;486074;242;27504;-68
2022/01/09 07:57:01;;;;;;;3.53;1.98;;;2.90;99.90;;;;;;486079;242;27370;-69
2022/01/09 07:59:03;;;;;;;6.00;2.50;;;2.90;99.90;;;;;;486101;242;27468;-69
2022/01/09 08:01:04;;;;;;;5.25;2.15;;;2.90;99.90;;;;;;486129;242;27451;-68
2022/01/09 08:03:05;;;;;;;9.40;2.60;;;2.90;99.90;;;;;;486078;242;27496;-68
2022/01/09 08:05:06;;;;;;;6.10;2.10;;;2.90;99.90;;;;;;486096;242;27472;-69
2022/01/09 08:07:08;;;;;;;5.35;2.47;;;3.00;99.90;;;;;;486107;242;27381;-68
2022/01/09 08:09:09;;;;;;;4.35;2.50;;;2.90;99.90;;;;;;486087;242;27417;-69
2022/01/09 08:11:10;;;;;;;4.22;2.08;;;3.00;99.90;;;;;;486095;242;27994;-69
2022/01/09 08:13:11;;;;;;;6.82;2.12;;;3.00;99.90;;;;;;486105;242;27924;-68
2022/01/09 08:15:13;;;;;;;11.02;2.22;;;3.00;99.90;;;;;;486078;242;27879;-69
2022/01/09 08:17:14;;;;;;;4.60;2.70;;;3.00;99.90;;;;;;486095;242;27799;-69
2022/01/09 08:19:15;;;;;;;7.53;3.70;;;3.00;99.90;;;;;;486082;242;27417;-69
2022/01/09 08:21:19;;;;;;;7.75;3.78;;;3.00;99.90;;;;;;486090;242;27404;-69
2022/01/09 08:23:18;;;;;;;3.60;2.83;;;3.00;99.90;;;;;;486072;242;27372;-69
2022/01/09 08:25:19;;;;;;;8.77;3.03;;;3.00;99.90;;;;;;486079;242;27472;-69
2022/01/09 08:27:20;;;;;;;6.80;2.70;;;3.00;99.90;;;;;;486094;242;27409;-69
2022/01/09 08:29:21;;;;;;;6.20;2.60;;;3.00;99.90;;;;;;486082;242;27392;-69
2022/01/09 08:31:23;;;;;;;4.37;2.33;;;3.00;99.90;;;;;;486095;242;27425;-69
2022/01/09 08:33:25;;;;;;;11.10;2.80;;;3.00;99.90;;;;;;486096;242;27365;-69
2022/01/09 08:35:25;;;;;;;3.83;2.30;;;3.00;99.90;;;;;;486064;242;27481;-69
2022/01/09 08:37:26;;;;;;;4.90;2.30;;;3.10;99.90;;;;;;486108;242;27908;-69
2022/01/09 08:39:28;;;;;;;3.45;2.30;;;3.10;99.90;;;;;;486104;242;27836;-69
2022/01/09 08:41:29;;;;;;;5.30;2.33;;;3.10;99.90;;;;;;486103;242;27989;-69
2022/01/09 08:43:31;;;;;;;11.20;2.47;;;3.10;99.90;;;;;;486090;242;27943;-69
2022/01/09 08:45:31;;;;;;;5.10;2.10;;;3.10;99.90;;;;;;486062;242;27388;-69
2022/01/09 08:47:36;;;;;;;7.53;2.20;;;3.10;99.90;;;;;;486083;242;27408;-69
2022/01/09 08:49:34;;;;;;;5.35;2.03;;;3.20;99.90;;;;;;486115;242;27448;-69
2022/01/09 08:51:35;;;;;;;5.95;2.22;;;3.20;99.90;;;;;;486109;242;27433;-69
2022/01/09 08:53:36;;;;;;;5.30;1.85;;;3.10;99.90;;;;;;486082;242;27374;-69
2022/01/09 08:55:38;;;;;;;6.72;2.45;;;3.20;99.90;;;;;;486069;242;27521;-69
2022/01/09 08:57:39;;;;;;;2.42;1.80;;;3.20;99.90;;;;;;486109;242;27409;-69
2022/01/09 08:59:40;;;;;;;6.03;2.12;;;3.20;99.90;;;;;;486115;242;27390;-69
2022/01/09 09:01:41;;;;;;;5.43;2.12;;;3.20;99.90;;;;;;486121;242;27404;-69
2022/01/09 09:03:43;;;;;;;6.35;2.28;;;3.20;99.90;;;;;;486145;242;27373;-69
2022/01/09 09:05:44;;;;;;;7.47;2.50;;;3.30;99.90;;;;;;486155;242;27866;-69
2022/01/09 09:07:45;;;;;;;7.87;2.12;;;3.30;99.90;;;;;;486165;242;27994;-69
2022/01/09 09:09:48;;;;;;;10.65;2.50;;;3.30;99.90;;;;;;486199;242;27926;-68
2022/01/09 09:11:48;;;;;;;8.68;2.50;;;3.30;99.90;;;;;;486137;242;27484;-69
2022/01/09 09:13:49;;;;;;;8.18;2.65;;;3.30;99.90;;;;;;486149;242;27373;-69
2022/01/09 09:15:50;;;;;;;8.48;2.25;;;3.30;99.90;;;;;;486149;242;27471;-69
2022/01/09 09:17:51;;;;;;;7.93;2.30;;;3.30;99.90;;;;;;486164;242;27531;-69
2022/01/09 09:19:53;;;;;;;4.90;2.30;;;3.30;99.90;;;;;;486125;242;27380;-69
2022/01/09 09:21:54;;;;;;;6.65;2.40;;;3.30;99.90;;;;;;486116;242;27412;-69
2022/01/09 09:23:55;;;;;;;5.72;2.03;;;3.40;99.90;;;;;;486138;242;27570;-69
2022/01/09 09:25:56;;;;;;;4.55;1.95;;;3.40;99.90;;;;;;486119;242;27516;-69
2022/01/09 09:27:58;;;;;;;3.35;2.00;;;3.40;99.90;;;;;;486140;242;27499;-69
2022/01/09 09:29:59;;;;;;;3.47;2.08;;;3.50;99.90;;;;;;486111;242;27376;-69
2022/01/09 09:32:00;;;;;;;8.80;3.65;;;3.40;99.90;;;;;;486109;242;27892;-69
2022/01/09 09:34:01;;;;;;;4.97;1.95;;;3.40;99.90;;;;;;486130;242;27991;-68
2022/01/09 09:36:03;;;;;;;7.80;2.33;;;3.40;99.90;;;;;;486136;242;27863;-69
2022/01/09 09:38:04;;;;;;;8.13;2.28;;;3.40;99.90;;;;;;486104;242;28009;-69
2022/01/09 09:40:05;;;;;;;8.55;3.03;;;3.40;99.90;;;;;;486117;242;27427;-69
2022/01/09 09:42:06;;;;;;;11.30;2.87;;;3.40;99.90;;;;;;486125;242;27416;-69
2022/01/09 09:44:09;;;;;;;4.75;2.12;;;3.50;99.90;;;;;;486140;242;27380;-69
2022/01/09 09:46:09;;;;;;;6.95;2.00;;;3.60;99.90;;;;;;486133;242;27394;-69
2022/01/09 09:48:10;;;;;;;3.08;1.67;;;3.60;99.90;;;;;;486129;242;27523;-69
2022/01/09 09:50:11;;;;;;;5.35;2.40;;;3.50;99.90;;;;;;486124;242;27465;-69
2022/01/09 09:52:17;;;;;;;5.15;2.00;;;3.50;99.90;;;;;;486081;242;27435;-69
2022/01/09 09:54:14;;;;;;;6.15;2.50;;;3.40;99.90;;;;;;486129;242;27459;-69
2022/01/09 09:56:15;;;;;;;6.37;2.12;;;3.40;99.90;;;;;;486105;242;27436;-69
2022/01/09 09:58:16;;;;;;;5.50;2.35;;;3.40;99.90;;;;;;486107;242;27416;-69
2022/01/09 10:00:18;;;;;;;3.05;2.22;;;3.40;99.90;;;;;;486125;242;27937;-69
2022/01/09 10:02:19;;;;;;;6.75;2.22;;;3.40;99.90;;;;;;486112;242;27915;-69
2022/01/09 10:04:20;;;;;;;4.93;2.42;;;3.40;99.90;;;;;;486124;242;27832;-69
2022/01/09 10:06:21;;;;;;;6.30;2.80;;;3.40;99.90;;;;;;486108;242;27385;-69
2022/01/09 10:08:23;;;;;;;8.45;2.87;;;3.50;99.90;;;;;;486146;242;27405;-69
2022/01/09 10:10:24;;;;;;;6.95;2.72;;;3.50;99.90;;;;;;486102;242;27419;-69
2022/01/09 10:12:25;;;;;;;6.22;2.22;;;3.50;99.90;;;;;;486096;242;27440;-69
2022/01/09 10:14:26;;;;;;;11.98;2.37;;;3.60;99.90;;;;;;486074;242;27463;-69
2022/01/09 10:16:28;;;;;;;8.02;2.67;;;3.60;99.90;;;;;;486118;242;27461;-69
2022/01/09 10:18:29;;;;;;;7.30;2.55;;;3.50;99.90;;;;;;486124;242;27413;-68
2022/01/09 10:20:30;;;;;;;7.28;2.40;;;3.40;99.90;;;;;;486097;242;27393;-68
2022/01/09 10:22:36;;;;;;;4.87;2.33;;;3.30;99.90;;;;;;486096;242;27433;-69
2022/01/09 10:24:33;;;;;;;11.80;2.50;;;3.20;99.90;;;;;;486221;240;27361;-68
2022/01/09 10:26:34;;;;;;;5.90;2.30;;;3.00;99.90;;;;;;486111;242;27840;-69
2022/01/09 10:28:35;;;;;;;5.37;2.85;;;2.90;99.90;;;;;;486097;242;28007;-68
2022/01/09 10:30:37;;;;;;;5.53;1.90;;;2.90;99.90;;;;;;486141;242;27823;-69
2022/01/09 10:32:38;;;;;;;2.75;1.80;;;2.90;99.90;;;;;;486051;244;27424;-68
2022/01/09 10:34:39;;;;;;;4.82;2.10;;;3.00;99.90;;;;;;486114;242;27365;-68
2022/01/09 10:36:40;;;;;;;3.72;2.25;;;3.10;99.90;;;;;;486107;242;27397;-69
2022/01/09 10:38:42;;;;;;;5.03;2.30;;;3.20;99.90;;;;;;486106;242;27408;-68
2022/01/09 10:40:43;;;;;;;2.42;2.05;;;3.20;99.90;;;;;;486084;242;27385;-69